| Back to River Map | <<< Previous Forecast Point | | | Next Forecast Point >>> | Printer Version | Graph Version |  |
|
SACRAMENTO RIVER - ORD FERRY (ORFC1)
| Latitude: 39.63º N | Longitude: 122.00º W | Elevation: 115 Feet | | Forecast Type: Official Location |
| Location: Glenn County in California | Bulletin Group: Upper Sacramento | River Group: Upper Sacramento |
| Issuance Time: | May 04 2026 at 7:03 AM PDT | Next Issuance: | May 05 2026 at 9:00 AM PDT
| |
| Action/Monitor: 110.0 Feet | Minor Flood: 114.0 Feet | Moderate Flood: 121.7 Feet | Major Flood: 124.8 Feet |
# Tabular Observed and Forecast Hydrograph Information
#
# Location: Sacramento River - Ord Ferry (ORFC1)
#
# File Generation Time: 05/04/2026 at 07:03 AM PDT
# Data Interval: 1 Hour
#
# Most Recent Date & Time of Maximum Observed: 04/29/2026 at 07:00 AM PDT
# Maximum Observed Stage: 97.31 Feet
# Maximum Observed Flow: 6818 cfs
#
# Earliest Date & Time of Maximum Forecast: 05/06/2026 at 11:00 AM PDT
# Maximum Forecast Stage: 96.98 Feet
# Maximum Forecast Flow: 5812 cfs
#
# OBSERVED
#
# Date & Time (Local) Stage (Feet) Flow (cfs) Trend Observed Status
# ---------------------------------------------------------------------------------
04/29/2026 07 AM PDT 97.31 6818 Normal
04/29/2026 08 AM PDT 97.30 6789 - Normal
04/29/2026 09 AM PDT 97.30 6789 0 Normal
04/29/2026 10 AM PDT 97.30 6789 0 Normal
04/29/2026 11 AM PDT 97.29 6756 - Normal
04/29/2026 12 PM PDT 97.29 6756 0 Normal
04/29/2026 01 PM PDT 97.29 6756 0 Normal
04/29/2026 02 PM PDT 97.28 6724 - Normal
04/29/2026 03 PM PDT 97.27 6691 - Normal
04/29/2026 04 PM PDT 97.26 6659 - Normal
04/29/2026 05 PM PDT 97.24 6594 - Normal
04/29/2026 06 PM PDT 97.23 6563 - Normal
04/29/2026 07 PM PDT 97.21 6499 - Normal
04/29/2026 08 PM PDT 97.20 6468 - Normal
04/29/2026 09 PM PDT 97.20 6468 0 Normal
04/29/2026 10 PM PDT 97.20 6468 0 Normal
04/29/2026 11 PM PDT 97.20 6468 0 Normal
04/30/2026 12 AM PDT 97.19 6436 - Normal
04/30/2026 01 AM PDT 97.19 6436 0 Normal
04/30/2026 02 AM PDT 97.19 6436 0 Normal
04/30/2026 03 AM PDT 97.18 6405 - Normal
04/30/2026 04 AM PDT 97.18 6405 0 Normal
04/30/2026 05 AM PDT 97.17 6374 - Normal
04/30/2026 06 AM PDT 97.17 6374 0 Normal
04/30/2026 07 AM PDT 97.16 6343 - Normal
04/30/2026 08 AM PDT 97.16 6343 0 Normal
04/30/2026 09 AM PDT 97.16 6343 0 Normal
04/30/2026 10 AM PDT 97.16 6343 0 Normal
04/30/2026 11 AM PDT 97.16 6343 0 Normal
04/30/2026 12 PM PDT 97.15 6313 - Normal
04/30/2026 01 PM PDT 97.16 6343 + Normal
04/30/2026 02 PM PDT 97.16 6343 0 Normal
04/30/2026 03 PM PDT 97.16 6343 0 Normal
04/30/2026 04 PM PDT 97.16 6343 0 Normal
04/30/2026 05 PM PDT 97.16 6343 0 Normal
04/30/2026 06 PM PDT 97.15 6313 - Normal
04/30/2026 07 PM PDT 97.14 6282 - Normal
04/30/2026 08 PM PDT 97.13 6252 - Normal
04/30/2026 09 PM PDT 97.11 6191 - Normal
04/30/2026 10 PM PDT 97.10 6161 - Normal
04/30/2026 11 PM PDT 97.08 6102 - Normal
05/01/2026 12 AM PDT 97.07 6072 - Normal
05/01/2026 01 AM PDT 97.06 6043 - Normal
05/01/2026 02 AM PDT 97.05 6014 - Normal
05/01/2026 03 AM PDT 97.04 5984 - Normal
05/01/2026 04 AM PDT 97.04 5984 0 Normal
05/01/2026 05 AM PDT 97.03 5955 - Normal
05/01/2026 06 AM PDT 97.03 5955 0 Normal
05/01/2026 07 AM PDT 97.02 5927 - Normal
05/01/2026 08 AM PDT 97.02 5927 0 Normal
05/01/2026 09 AM PDT 97.01 5898 - Normal
05/01/2026 10 AM PDT 97.01 5898 0 Normal
05/01/2026 11 AM PDT 97.01 5898 0 Normal
05/01/2026 12 PM PDT 97.01 5898 0 Normal
05/01/2026 01 PM PDT 97.01 5898 0 Normal
05/01/2026 02 PM PDT 97.01 5898 0 Normal
05/01/2026 03 PM PDT 97.00 5869 - Normal
05/01/2026 04 PM PDT 96.99 5841 - Normal
05/01/2026 05 PM PDT 96.99 5841 0 Normal
05/01/2026 06 PM PDT 96.98 5812 - Normal
05/01/2026 07 PM PDT 96.97 5784 - Normal
05/01/2026 08 PM PDT 96.97 5784 0 Normal
05/01/2026 09 PM PDT 96.96 5756 - Normal
05/01/2026 10 PM PDT 96.96 5756 0 Normal
05/01/2026 11 PM PDT 96.95 5728 - Normal
05/02/2026 12 AM PDT 96.94 5700 - Normal
05/02/2026 01 AM PDT 96.93 5673 - Normal
05/02/2026 02 AM PDT 96.93 5673 0 Normal
05/02/2026 03 AM PDT 96.92 5645 - Normal
05/02/2026 04 AM PDT 96.91 5618 - Normal
05/02/2026 05 AM PDT 96.90 5591 - Normal
05/02/2026 06 AM PDT 96.89 5563 - Normal
05/02/2026 07 AM PDT 96.88 5536 - Normal
05/02/2026 08 AM PDT 96.88 5536 0 Normal
05/02/2026 09 AM PDT 96.87 5510 - Normal
05/02/2026 10 AM PDT 96.87 5510 0 Normal
05/02/2026 11 AM PDT 96.86 5483 - Normal
05/02/2026 12 PM PDT 96.85 5456 - Normal
05/02/2026 01 PM PDT 96.84 5430 - Normal
05/02/2026 02 PM PDT 96.82 5377 - Normal
05/02/2026 03 PM PDT 96.82 5377 0 Normal
05/02/2026 04 PM PDT 96.81 5351 - Normal
05/02/2026 05 PM PDT 96.81 5351 0 Normal
05/02/2026 06 PM PDT 96.80 5325 - Normal
05/02/2026 07 PM PDT 96.79 5295 - Normal
05/02/2026 08 PM PDT 96.79 5295 0 Normal
05/02/2026 09 PM PDT 96.79 5295 0 Normal
05/02/2026 10 PM PDT 96.79 5295 0 Normal
05/02/2026 11 PM PDT 96.78 5266 - Normal
05/03/2026 12 AM PDT 96.78 5266 0 Normal
05/03/2026 01 AM PDT 96.77 5237 - Normal
05/03/2026 02 AM PDT 96.76 5207 - Normal
05/03/2026 03 AM PDT 96.76 5207 0 Normal
05/03/2026 04 AM PDT 96.75 5178 - Normal
05/03/2026 05 AM PDT 96.75 5178 0 Normal
05/03/2026 06 AM PDT 96.75 5178 0 Normal
05/03/2026 07 AM PDT 96.74 5150 - Normal
05/03/2026 08 AM PDT 96.74 5150 0 Normal
05/03/2026 09 AM PDT 96.73 5121 - Normal
05/03/2026 10 AM PDT 96.72 5092 - Normal
05/03/2026 11 AM PDT 96.71 5064 - Normal
05/03/2026 12 PM PDT 96.70 5036 - Normal
05/03/2026 01 PM PDT 96.68 4980 - Normal
05/03/2026 02 PM PDT 96.67 4952 - Normal
05/03/2026 03 PM PDT 96.67 4952 0 Normal
05/03/2026 04 PM PDT 96.68 4980 + Normal
05/03/2026 05 PM PDT 96.68 4980 0 Normal
05/03/2026 06 PM PDT 96.68 4980 0 Normal
05/03/2026 07 PM PDT 96.68 4980 0 Normal
05/03/2026 08 PM PDT 96.68 4980 0 Normal
05/03/2026 09 PM PDT 96.68 4980 0 Normal
05/03/2026 10 PM PDT 96.69 5008 + Normal
05/03/2026 11 PM PDT 96.70 5036 + Normal
05/04/2026 12 AM PDT 96.71 5064 + Normal
05/04/2026 01 AM PDT 96.72 5092 + Normal
05/04/2026 02 AM PDT 96.72 5092 0 Normal
05/04/2026 03 AM PDT 96.72 5092 0 Normal
05/04/2026 04 AM PDT 96.72 5092 0 Normal
05/04/2026 05 AM PDT 96.72 5092 0 Normal
05/04/2026 06 AM PDT 96.72 5092 0 Normal
#
# FORECAST
#
# Date & Time (Local) Stage (Feet) Flow (cfs) Trend Forecast Status
# ---------------------------------------------------------------------------------
05/04/2026 07 AM PDT 96.73 5121 Normal
05/04/2026 08 AM PDT 96.73 5121 0 Normal
05/04/2026 09 AM PDT 96.74 5150 + Normal
05/04/2026 10 AM PDT 96.74 5150 0 Normal
05/04/2026 11 AM PDT 96.75 5178 + Normal
05/04/2026 12 PM PDT 96.77 5237 + Normal
05/04/2026 01 PM PDT 96.78 5266 + Normal
05/04/2026 02 PM PDT 96.79 5295 + Normal
05/04/2026 03 PM PDT 96.80 5325 + Normal
05/04/2026 04 PM PDT 96.81 5351 + Normal
05/04/2026 05 PM PDT 96.81 5351 0 Normal
05/04/2026 06 PM PDT 96.81 5351 0 Normal
05/04/2026 07 PM PDT 96.81 5351 0 Normal
05/04/2026 08 PM PDT 96.80 5325 - Normal
05/04/2026 09 PM PDT 96.79 5295 - Normal
05/04/2026 10 PM PDT 96.78 5266 - Normal
05/04/2026 11 PM PDT 96.76 5207 - Normal
05/05/2026 12 AM PDT 96.75 5178 - Normal
05/05/2026 01 AM PDT 96.74 5150 - Normal
05/05/2026 02 AM PDT 96.73 5121 - Normal
05/05/2026 03 AM PDT 96.72 5092 - Normal
05/05/2026 04 AM PDT 96.72 5092 0 Normal
05/05/2026 05 AM PDT 96.71 5064 - Normal
05/05/2026 06 AM PDT 96.71 5064 0 Normal
05/05/2026 07 AM PDT 96.70 5036 - Normal
05/05/2026 08 AM PDT 96.70 5036 0 Normal
05/05/2026 09 AM PDT 96.70 5036 0 Normal
05/05/2026 10 AM PDT 96.70 5036 0 Normal
05/05/2026 11 AM PDT 96.69 5008 - Normal
05/05/2026 12 PM PDT 96.69 5008 0 Normal
05/05/2026 01 PM PDT 96.69 5008 0 Normal
05/05/2026 02 PM PDT 96.70 5036 + Normal
05/05/2026 03 PM PDT 96.70 5036 0 Normal
05/05/2026 04 PM PDT 96.70 5036 0 Normal
05/05/2026 05 PM PDT 96.70 5036 0 Normal
05/05/2026 06 PM PDT 96.70 5036 0 Normal
05/05/2026 07 PM PDT 96.70 5036 0 Normal
05/05/2026 08 PM PDT 96.70 5036 0 Normal
05/05/2026 09 PM PDT 96.70 5036 0 Normal
05/05/2026 10 PM PDT 96.71 5064 + Normal
05/05/2026 11 PM PDT 96.73 5121 + Normal
05/06/2026 12 AM PDT 96.76 5207 + Normal
05/06/2026 01 AM PDT 96.79 5295 + Normal
05/06/2026 02 AM PDT 96.82 5377 + Normal
05/06/2026 03 AM PDT 96.85 5456 + Normal
05/06/2026 04 AM PDT 96.88 5536 + Normal
05/06/2026 05 AM PDT 96.91 5618 + Normal
05/06/2026 06 AM PDT 96.93 5673 + Normal
05/06/2026 07 AM PDT 96.94 5700 + Normal
05/06/2026 08 AM PDT 96.96 5756 + Normal
05/06/2026 09 AM PDT 96.97 5784 + Normal
05/06/2026 10 AM PDT 96.97 5784 0 Normal
05/06/2026 11 AM PDT 96.98 5812 + Normal
05/06/2026 12 PM PDT 96.98 5812 0 Normal
05/06/2026 01 PM PDT 96.98 5812 0 Normal
05/06/2026 02 PM PDT 96.98 5812 0 Normal
05/06/2026 03 PM PDT 96.98 5812 0 Normal
05/06/2026 04 PM PDT 96.98 5812 0 Normal
05/06/2026 05 PM PDT 96.98 5812 0 Normal
05/06/2026 06 PM PDT 96.98 5812 0 Normal
05/06/2026 07 PM PDT 96.98 5812 0 Normal
05/06/2026 08 PM PDT 96.97 5784 - Normal
05/06/2026 09 PM PDT 96.97 5784 0 Normal
05/06/2026 10 PM PDT 96.97 5784 0 Normal
05/06/2026 11 PM PDT 96.97 5784 0 Normal
05/07/2026 12 AM PDT 96.97 5784 0 Normal
05/07/2026 01 AM PDT 96.97 5784 0 Normal
05/07/2026 02 AM PDT 96.96 5756 - Normal
05/07/2026 03 AM PDT 96.96 5756 0 Normal
05/07/2026 04 AM PDT 96.96 5756 0 Normal
05/07/2026 05 AM PDT 96.96 5756 0 Normal
05/07/2026 06 AM PDT 96.96 5756 0 Normal
05/07/2026 07 AM PDT 96.95 5728 - Normal
05/07/2026 08 AM PDT 96.95 5728 0 Normal
05/07/2026 09 AM PDT 96.95 5728 0 Normal
05/07/2026 10 AM PDT 96.95 5728 0 Normal
05/07/2026 11 AM PDT 96.95 5728 0 Normal
05/07/2026 12 PM PDT 96.95 5728 0 Normal
05/07/2026 01 PM PDT 96.95 5728 0 Normal
05/07/2026 02 PM PDT 96.94 5700 - Normal
05/07/2026 03 PM PDT 96.94 5700 0 Normal
05/07/2026 04 PM PDT 96.94 5700 0 Normal
05/07/2026 05 PM PDT 96.94 5700 0 Normal
05/07/2026 06 PM PDT 96.94 5700 0 Normal
05/07/2026 07 PM PDT 96.94 5700 0 Normal
05/07/2026 08 PM PDT 96.94 5700 0 Normal
05/07/2026 09 PM PDT 96.93 5673 - Normal
05/07/2026 10 PM PDT 96.93 5673 0 Normal
05/07/2026 11 PM PDT 96.93 5673 0 Normal
05/08/2026 12 AM PDT 96.93 5673 0 Normal
05/08/2026 01 AM PDT 96.93 5673 0 Normal
05/08/2026 02 AM PDT 96.93 5673 0 Normal
05/08/2026 03 AM PDT 96.93 5673 0 Normal
05/08/2026 04 AM PDT 96.92 5645 - Normal
05/08/2026 05 AM PDT 96.92 5645 0 Normal
05/08/2026 06 AM PDT 96.92 5645 0 Normal
05/08/2026 07 AM PDT 96.92 5645 0 Normal
05/08/2026 08 AM PDT 96.92 5645 0 Normal
05/08/2026 09 AM PDT 96.92 5645 0 Normal
05/08/2026 10 AM PDT 96.92 5645 0 Normal
05/08/2026 11 AM PDT 96.92 5645 0 Normal
05/08/2026 12 PM PDT 96.91 5618 - Normal
05/08/2026 01 PM PDT 96.91 5618 0 Normal
05/08/2026 02 PM PDT 96.91 5618 0 Normal
05/08/2026 03 PM PDT 96.91 5618 0 Normal
05/08/2026 04 PM PDT 96.91 5618 0 Normal
05/08/2026 05 PM PDT 96.91 5618 0 Normal
05/08/2026 06 PM PDT 96.91 5618 0 Normal
05/08/2026 07 PM PDT 96.91 5618 0 Normal
05/08/2026 08 PM PDT 96.90 5591 - Normal
05/08/2026 09 PM PDT 96.90 5591 0 Normal
05/08/2026 10 PM PDT 96.90 5591 0 Normal
05/08/2026 11 PM PDT 96.90 5591 0 Normal
05/09/2026 12 AM PDT 96.90 5591 0 Normal
05/09/2026 01 AM PDT 96.90 5591 0 Normal
05/09/2026 02 AM PDT 96.89 5563 - Normal
05/09/2026 03 AM PDT 96.89 5563 0 Normal
05/09/2026 04 AM PDT 96.89 5563 0 Normal
05/09/2026 05 AM PDT 96.89 5563 0 Normal
#
# NOTE 1: Stages are rounded to the nearest hundredth (.01) of a foot.
# NOTE 2: Flows are rounded to the nearest (1) cfs.
# NOTE 3: Trends are determined using hourly change in unrounded stage and flow.
# NOTE 4: Maximum Values are determined using unrounded stage and flow.
|